PAGY/SGY METAR and TAF weather

Enter ICAO airport designator
Station Type Date Time Source
PAGY METAR 2020/07/13 13:53 UTC NOAA

PAGY 131353Z AUTO 21018G24KT 10SM OVC055 14/11 A3003 RMK SLP170 T01390106 TSNO VIA AUTODIAL


Station Type Date Time Source
PAGY Decoded METAR 2020/07/13 13:53 UTC NOAA

SKAGWAY AIRPORT, AK, United States (PAGY) 59-28N 135-19W 5M
Jul 13, 2020 - 09:53 AM EDT / 2020.07.13 1353 UTC
Wind: from the SSW (210 degrees) at 21 MPH (18 KT) gusting to 28 MPH (24 KT):0
Visibility: 10 mile(s):0
Sky conditions: overcast
Temperature: 57.0 F (13.9 C)
Dew Point: 51.1 F (10.6 C)
Relative Humidity: 80%
Pressure (altimeter): 30.03 in. Hg (1016 hPa)
ob: PAGY 131353Z AUTO 21018G24KT 10SM OVC055 14/11 A3003 RMK SLP170 T01390106 TSNO VIA AUTODIAL
cycle: 14

Station Type Date Time Source
PAGY TAF 2020/07/13 12:30 UTC NOAA

TAF PAGY 131129Z 1312/1412 21012G22KT P6SM OVC060
FM140500 21009KT P6SM VCSH OVC050
FM140800 21006KT P6SM VCSH OVC025
AMD LTD TO CLD VIS AND WIND

Example: see airport list